createdAt,value
2022-12-31T00:00:42.338Z,0.57
2022-12-31T00:03:44.936Z,0.68
2022-12-31T00:06:47.552Z,1.37
2022-12-31T00:09:49.641Z,0.75
2022-12-31T00:12:51.705Z,0.70
2022-12-31T00:15:53.760Z,0.20
2022-12-31T00:18:59.254Z,0.47
2022-12-31T00:22:01.296Z,0.10
2022-12-31T00:25:04.002Z,0.43
2022-12-31T00:28:05.972Z,0.37
2022-12-31T00:31:40.228Z,0.10
2022-12-31T00:34:42.213Z,0.00
2022-12-31T00:37:44.259Z,0.10
2022-12-31T00:40:46.283Z,0.17
2022-12-31T00:43:48.829Z,0.10
2022-12-31T00:46:50.906Z,0.10
2022-12-31T00:49:53.234Z,0.17
2022-12-31T00:52:55.257Z,0.75
2022-12-31T00:56:01.341Z,0.20
2022-12-31T00:59:03.715Z,1.67
2022-12-31T01:02:05.874Z,0.10
2022-12-31T01:05:08.331Z,0.50
2022-12-31T01:08:10.466Z,0.10
2022-12-31T01:11:19.044Z,0.20
2022-12-31T01:14:21.387Z,0.28
2022-12-31T01:17:23.430Z,0.65
2022-12-31T01:20:27.340Z,0.28
2022-12-31T01:23:30.085Z,0.40
2022-12-31T01:26:32.264Z,0.35
2022-12-31T01:29:34.544Z,0.60
2022-12-31T01:32:36.742Z,0.05
2022-12-31T01:35:39.779Z,0.63
2022-12-31T01:38:42.616Z,0.93
2022-12-31T01:41:47.573Z,0.85
2022-12-31T01:44:52.945Z,0.10
2022-12-31T01:47:57.854Z,0.20
2022-12-31T01:51:00.171Z,0.05
2022-12-31T01:54:07.077Z,0.50
2022-12-31T01:57:09.935Z,0.82
2022-12-31T02:00:12.677Z,1.03
2022-12-31T02:03:15.071Z,0.20
2022-12-31T02:06:21.655Z,0.47
2022-12-31T02:09:24.157Z,0.20
2022-12-31T02:12:26.203Z,0.52
2022-12-31T02:15:42.144Z,1.13
2022-12-31T02:18:58.191Z,0.80
2022-12-31T02:22:20.143Z,0.32
2022-12-31T02:25:43.312Z,0.10
2022-12-31T02:29:08.305Z,0.50
2022-12-31T02:32:39.165Z,0.50
2022-12-31T02:35:53.981Z,0.00
2022-12-31T02:38:57.524Z,0.40
2022-12-31T02:42:00.529Z,0.60
2022-12-31T02:45:03.871Z,0.50
2022-12-31T02:48:31.434Z,0.32
2022-12-31T02:51:51.038Z,0.47
2022-12-31T02:55:14.532Z,0.20
2022-12-31T02:58:48.516Z,0.20
2022-12-31T03:02:16.656Z,0.20
2022-12-31T03:05:23.926Z,0.57
2022-12-31T03:08:26.445Z,0.65
2022-12-31T03:11:47.342Z,0.10
2022-12-31T03:14:49.563Z,0.10
2022-12-31T03:18:12.128Z,0.10
2022-12-31T03:21:32.827Z,0.00
2022-12-31T03:24:53.351Z,0.22
2022-12-31T03:27:55.788Z,0.20
2022-12-31T03:31:01.860Z,0.10
2022-12-31T03:34:03.906Z,0.05
2022-12-31T03:37:05.906Z,0.63
2022-12-31T03:40:10.272Z,0.40
2022-12-31T03:43:14.111Z,0.03
2022-12-31T03:46:16.134Z,0.67
2022-12-31T03:49:18.071Z,0.10
2022-12-31T03:52:20.162Z,0.38
2022-12-31T03:55:22.284Z,0.20
2022-12-31T03:58:24.485Z,0.22
2022-12-31T04:01:26.622Z,0.10
2022-12-31T04:04:28.872Z,0.63
2022-12-31T04:07:30.830Z,0.10
2022-12-31T04:10:32.846Z,0.50
2022-12-31T04:13:34.822Z,0.73
2022-12-31T04:16:36.966Z,0.73
2022-12-31T04:19:39.015Z,0.20
2022-12-31T04:22:40.963Z,0.75
2022-12-31T04:25:42.892Z,0.10
2022-12-31T04:28:46.361Z,0.47
2022-12-31T04:31:48.603Z,0.82
2022-12-31T04:34:50.703Z,0.05
2022-12-31T04:37:52.738Z,0.20
2022-12-31T04:41:13.444Z,0.05
2022-12-31T04:44:15.988Z,0.20
2022-12-31T04:47:23.442Z,0.10
2022-12-31T04:50:25.927Z,0.10
2022-12-31T04:53:28.114Z,0.52
2022-12-31T04:56:30.721Z,0.25
2022-12-31T04:59:32.824Z,0.15
2022-12-31T05:02:34.868Z,0.30
2022-12-31T05:05:42.788Z,0.10
2022-12-31T05:08:45.118Z,0.40
2022-12-31T05:11:47.150Z,0.30
2022-12-31T05:14:49.114Z,0.57
2022-12-31T05:17:51.142Z,0.00
2022-12-31T05:20:53.152Z,1.02
2022-12-31T05:23:55.129Z,0.32
2022-12-31T05:26:57.128Z,0.32
2022-12-31T05:29:59.738Z,0.20
2022-12-31T05:33:01.801Z,0.10
2022-12-31T05:36:04.280Z,0.10
2022-12-31T05:39:06.785Z,0.37
2022-12-31T05:42:09.005Z,0.35
2022-12-31T05:45:13.517Z,1.60
2022-12-31T05:48:15.568Z,0.77
2022-12-31T05:51:17.623Z,0.40
2022-12-31T05:54:19.855Z,1.15
2022-12-31T05:57:21.895Z,0.50
2022-12-31T06:00:23.965Z,0.20
2022-12-31T06:03:25.947Z,0.20
2022-12-31T06:06:28.030Z,0.43
2022-12-31T06:09:30.079Z,0.30
2022-12-31T06:12:32.188Z,0.32
2022-12-31T06:15:37.826Z,1.38
2022-12-31T06:18:40.075Z,0.77
2022-12-31T06:21:42.150Z,0.55
2022-12-31T06:24:44.147Z,0.10
2022-12-31T06:27:46.182Z,0.03
2022-12-31T06:30:48.830Z,0.25
2022-12-31T06:33:50.804Z,0.60
2022-12-31T06:36:52.977Z,0.35
2022-12-31T06:39:55.424Z,0.67
2022-12-31T06:43:00.169Z,1.10
2022-12-31T06:46:08.535Z,0.30
2022-12-31T06:49:10.941Z,0.20
2022-12-31T06:52:13.108Z,0.10
2022-12-31T06:55:15.767Z,0.15
2022-12-31T06:58:18.100Z,0.20
2022-12-31T07:01:51.177Z,0.25
2022-12-31T07:04:53.535Z,0.30
2022-12-31T07:08:11.470Z,0.25
2022-12-31T07:11:30.259Z,2.03
2022-12-31T07:14:48.530Z,0.15
2022-12-31T07:18:23.060Z,0.28
2022-12-31T07:21:35.048Z,0.20
2022-12-31T07:24:39.440Z,0.15
2022-12-31T07:28:02.907Z,0.65
2022-12-31T07:31:19.580Z,0.10
2022-12-31T07:34:35.479Z,0.10
2022-12-31T07:38:10.189Z,0.55
2022-12-31T07:41:27.356Z,0.25
2022-12-31T07:44:42.123Z,0.50
2022-12-31T07:47:44.507Z,0.35
2022-12-31T07:50:46.964Z,0.00
2022-12-31T07:53:49.010Z,0.17
2022-12-31T07:56:51.646Z,0.10
2022-12-31T08:00:11.692Z,0.40
2022-12-31T08:04:00.049Z,0.57
2022-12-31T08:07:08.276Z,0.10
2022-12-31T08:10:23.158Z,0.75
2022-12-31T08:13:25.683Z,0.10
2022-12-31T08:16:28.051Z,0.30
2022-12-31T08:19:32.514Z,0.90
2022-12-31T08:22:49.689Z,0.70
2022-12-31T08:26:11.373Z,0.63
2022-12-31T08:29:22.211Z,0.10
2022-12-31T08:32:29.378Z,0.40
2022-12-31T08:35:54.769Z,0.50
2022-12-31T08:39:24.518Z,0.98
2022-12-31T08:42:37.122Z,0.50
2022-12-31T08:45:44.466Z,1.10
2022-12-31T08:48:48.468Z,0.40
2022-12-31T08:51:50.886Z,0.15
2022-12-31T08:54:54.506Z,0.50
2022-12-31T08:58:30.468Z,1.20
2022-12-31T09:01:55.829Z,0.10
2022-12-31T09:05:13.371Z,0.65
2022-12-31T09:08:18.417Z,1.00
2022-12-31T09:11:45.780Z,0.20
2022-12-31T09:14:53.363Z,0.30
2022-12-31T09:17:55.774Z,0.90
2022-12-31T09:20:58.161Z,0.33
2022-12-31T09:24:05.923Z,1.42
2022-12-31T09:27:27.599Z,0.95
2022-12-31T09:30:41.511Z,0.50
2022-12-31T09:34:14.556Z,0.97
2022-12-31T09:37:24.076Z,0.80
2022-12-31T09:41:02.800Z,0.68
2022-12-31T09:44:23.299Z,0.88
2022-12-31T09:48:06.628Z,1.75
2022-12-31T09:51:25.273Z,0.57
2022-12-31T09:54:36.711Z,0.40
2022-12-31T09:57:45.785Z,0.37
2022-12-31T10:00:57.779Z,0.93
2022-12-31T10:04:06.717Z,0.90
2022-12-31T10:07:30.757Z,0.77
2022-12-31T10:10:52.088Z,0.50
2022-12-31T10:14:36.246Z,1.13
2022-12-31T10:17:56.587Z,1.75
2022-12-31T10:21:16.884Z,1.17
2022-12-31T10:24:43.435Z,1.42
2022-12-31T10:28:13.500Z,0.95
2022-12-31T10:31:48.817Z,1.08
2022-12-31T10:35:00.595Z,0.77
2022-12-31T10:38:40.318Z,1.02
2022-12-31T10:41:54.641Z,1.50
2022-12-31T10:45:22.400Z,0.98
2022-12-31T10:48:52.768Z,2.13
2022-12-31T10:52:06.809Z,0.32
2022-12-31T10:55:47.394Z,0.85
2022-12-31T10:59:26.280Z,0.53
2022-12-31T11:03:00.541Z,0.57
2022-12-31T11:06:27.944Z,0.85
2022-12-31T11:10:00.216Z,1.10
2022-12-31T11:13:59.670Z,1.80
2022-12-31T11:17:08.010Z,0.32
2022-12-31T11:20:29.515Z,0.52
2022-12-31T11:23:43.658Z,1.50
2022-12-31T11:26:48.782Z,0.47
2022-12-31T11:30:12.871Z,0.52
2022-12-31T11:33:39.302Z,1.35
2022-12-31T11:37:03.308Z,1.08
2022-12-31T11:40:32.605Z,2.10
2022-12-31T11:43:48.404Z,0.85
2022-12-31T11:47:16.600Z,0.73
2022-12-31T11:50:24.579Z,1.45
2022-12-31T11:53:39.424Z,1.80
2022-12-31T11:56:47.350Z,1.13
2022-12-31T11:59:54.532Z,0.47
2022-12-31T12:03:03.548Z,2.08
2022-12-31T12:06:05.887Z,1.27
2022-12-31T12:09:17.194Z,2.45
2022-12-31T12:12:19.398Z,0.93
2022-12-31T12:15:28.601Z,1.10
2022-12-31T12:18:36.969Z,2.23
2022-12-31T12:21:47.026Z,1.80
2022-12-31T12:25:04.986Z,0.98
2022-12-31T12:28:21.038Z,1.05
2022-12-31T12:31:24.161Z,1.60
2022-12-31T12:34:32.153Z,1.15
2022-12-31T12:37:36.206Z,1.35
2022-12-31T12:40:39.247Z,1.65
2022-12-31T12:43:41.338Z,1.23
2022-12-31T12:46:53.117Z,1.15
2022-12-31T12:49:55.925Z,1.33
2022-12-31T12:53:22.746Z,1.08
2022-12-31T12:56:32.865Z,1.53
2022-12-31T13:00:01.960Z,1.60
2022-12-31T13:03:28.932Z,1.23
2022-12-31T13:07:00.403Z,1.42
2022-12-31T13:10:02.307Z,1.65
2022-12-31T13:13:26.109Z,2.30
2022-12-31T13:16:37.768Z,1.15
2022-12-31T13:19:49.974Z,1.77
2022-12-31T13:23:00.771Z,2.45
2022-12-31T13:26:15.325Z,1.97
2022-12-31T13:29:22.355Z,1.75
2022-12-31T13:32:39.322Z,1.45
2022-12-31T13:35:56.319Z,0.98
2022-12-31T13:39:02.410Z,2.30
2022-12-31T13:42:21.190Z,1.20
2022-12-31T13:45:38.916Z,1.92
2022-12-31T13:48:50.800Z,0.82
2022-12-31T13:51:58.943Z,2.10
2022-12-31T13:55:15.546Z,0.47
2022-12-31T13:58:28.303Z,1.25
2022-12-31T14:01:57.200Z,1.05
2022-12-31T14:05:09.901Z,1.60
2022-12-31T14:08:12.252Z,2.83
2022-12-31T14:11:45.516Z,1.63
2022-12-31T14:14:58.713Z,1.20
2022-12-31T14:18:09.751Z,2.90
2022-12-31T14:21:19.872Z,1.80
2022-12-31T14:24:34.139Z,2.30
2022-12-31T14:27:41.616Z,1.73
2022-12-31T14:31:04.764Z,2.42
2022-12-31T14:34:16.022Z,1.00
2022-12-31T14:37:39.663Z,2.53
2022-12-31T14:40:56.736Z,1.77
2022-12-31T14:44:09.163Z,2.45
2022-12-31T14:47:44.971Z,2.47
2022-12-31T14:50:47.506Z,0.98
2022-12-31T14:53:57.030Z,2.50
2022-12-31T14:57:10.028Z,2.80
2022-12-31T15:00:24.351Z,1.30
2022-12-31T15:03:36.990Z,3.33
2022-12-31T15:07:23.837Z,3.72
2022-12-31T15:10:52.365Z,2.53
2022-12-31T15:14:22.303Z,5.30
2022-12-31T15:17:53.296Z,3.85
2022-12-31T15:21:28.089Z,3.17
2022-12-31T15:24:30.874Z,2.47
2022-12-31T15:27:32.942Z,3.70
2022-12-31T15:30:40.077Z,1.73
2022-12-31T15:34:07.916Z,2.55
2022-12-31T15:37:28.368Z,1.38
2022-12-31T15:40:46.565Z,2.72
2022-12-31T15:43:52.898Z,3.03
2022-12-31T15:47:04.515Z,1.65
2022-12-31T15:50:13.126Z,1.08
2022-12-31T15:53:33.582Z,2.00
2022-12-31T15:56:45.326Z,1.38
2022-12-31T15:59:47.912Z,3.70
2022-12-31T16:02:55.232Z,1.48
2022-12-31T16:06:03.135Z,2.00
2022-12-31T16:09:24.722Z,3.80
2022-12-31T16:12:33.731Z,2.03
2022-12-31T16:15:39.142Z,2.38
2022-12-31T16:18:43.687Z,1.73
2022-12-31T16:21:45.955Z,1.92
2022-12-31T16:25:29.786Z,1.15
2022-12-31T16:28:30.035Z,0.80
2022-12-31T16:31:32.701Z,1.27
2022-12-31T16:34:37.674Z,0.75
2022-12-31T16:37:39.590Z,1.27
2022-12-31T16:40:43.991Z,1.25
2022-12-31T16:43:48.742Z,1.70
2022-12-31T16:46:58.042Z,0.68
2022-12-31T16:50:07.913Z,1.73
2022-12-31T16:53:14.969Z,3.47
2022-12-31T16:56:38.306Z,2.50
2022-12-31T16:59:45.196Z,3.95
2022-12-31T17:02:53.403Z,3.05
2022-12-31T17:06:07.590Z,1.00
2022-12-31T17:09:21.363Z,1.47
2022-12-31T17:12:24.876Z,1.73
2022-12-31T17:15:42.398Z,2.28
2022-12-31T17:18:44.889Z,1.48
2022-12-31T17:21:48.575Z,2.63
2022-12-31T17:24:52.867Z,2.30
2022-12-31T17:27:54.931Z,2.00
2022-12-31T17:31:01.474Z,1.13
2022-12-31T17:34:20.871Z,2.17
2022-12-31T17:37:27.679Z,1.25
2022-12-31T17:40:53.180Z,2.55
2022-12-31T17:43:56.853Z,1.73
2022-12-31T17:46:59.134Z,2.43
2022-12-31T17:50:09.096Z,3.92
2022-12-31T17:53:12.644Z,4.22
2022-12-31T17:56:18.539Z,3.35
2022-12-31T17:59:33.481Z,1.92
2022-12-31T18:02:35.615Z,2.30
2022-12-31T18:05:37.747Z,2.05
2022-12-31T18:08:40.139Z,1.37
2022-12-31T18:11:42.732Z,2.10
2022-12-31T18:14:45.789Z,3.30
2022-12-31T18:17:48.977Z,3.22
2022-12-31T18:20:55.034Z,2.47
2022-12-31T18:26:58.215Z,2.00
2022-12-31T18:30:04.969Z,1.60
2022-12-31T18:33:12.458Z,4.00
2022-12-31T18:36:17.453Z,1.50
2022-12-31T18:39:19.703Z,2.22
2022-12-31T18:42:25.622Z,2.63
2022-12-31T18:45:27.692Z,2.95
2022-12-31T18:48:29.925Z,1.90
2022-12-31T18:51:32.535Z,2.03
2022-12-31T18:54:34.761Z,3.88
2022-12-31T18:57:36.753Z,5.25
2022-12-31T19:00:38.971Z,4.35
2022-12-31T19:03:41.061Z,2.67
2022-12-31T19:06:44.083Z,2.13
2022-12-31T19:09:48.303Z,3.78
2022-12-31T19:12:52.846Z,2.47
2022-12-31T19:15:55.656Z,1.52
2022-12-31T19:18:57.829Z,1.77
2022-12-31T19:21:59.833Z,1.45
2022-12-31T19:25:02.002Z,1.40
2022-12-31T19:28:09.373Z,1.55
2022-12-31T19:31:14.078Z,1.30
2022-12-31T19:34:16.881Z,2.72
2022-12-31T19:37:18.882Z,1.33
2022-12-31T19:40:26.795Z,0.85
2022-12-31T19:43:29.183Z,3.95
2022-12-31T19:46:31.132Z,2.00
2022-12-31T19:49:33.880Z,1.77
2022-12-31T19:52:35.860Z,1.60
2022-12-31T19:55:37.975Z,2.42
2022-12-31T19:58:40.112Z,3.15
2022-12-31T20:01:42.241Z,2.40
2022-12-31T20:04:44.310Z,2.22
2022-12-31T20:07:46.707Z,2.65
2022-12-31T20:10:49.169Z,2.25
2022-12-31T20:13:52.798Z,2.30
2022-12-31T20:16:56.050Z,1.77
2022-12-31T20:19:58.208Z,2.35
2022-12-31T20:23:00.271Z,2.65
2022-12-31T20:26:02.621Z,1.90
2022-12-31T20:29:04.661Z,2.42
2022-12-31T20:32:06.705Z,3.15
2022-12-31T20:35:08.774Z,1.27
2022-12-31T20:38:10.951Z,0.57
2022-12-31T20:41:19.397Z,1.70
2022-12-31T20:44:21.510Z,0.70
2022-12-31T20:47:23.598Z,1.95
2022-12-31T20:50:26.016Z,1.47
2022-12-31T20:53:28.092Z,1.10
2022-12-31T20:56:35.737Z,1.98
2022-12-31T20:59:37.883Z,2.05
2022-12-31T21:02:42.748Z,2.03
2022-12-31T21:05:53.314Z,1.98
2022-12-31T21:08:57.265Z,1.52
2022-12-31T21:12:17.860Z,2.92
2022-12-31T21:15:21.412Z,1.85
2022-12-31T21:18:23.730Z,3.00
2022-12-31T21:21:25.927Z,2.10
2022-12-31T21:24:27.970Z,0.70
2022-12-31T21:27:30.101Z,1.45
2022-12-31T21:30:33.539Z,1.27
2022-12-31T21:33:35.646Z,0.98
2022-12-31T21:36:37.703Z,0.98
2022-12-31T21:39:40.073Z,0.88
2022-12-31T21:42:42.200Z,1.23
2022-12-31T21:45:44.437Z,2.40
2022-12-31T21:48:46.532Z,2.58
2022-12-31T21:52:07.292Z,2.80
2022-12-31T21:55:30.896Z,2.15
2022-12-31T21:58:33.610Z,1.60
2022-12-31T22:01:54.407Z,2.35
2022-12-31T22:05:09.121Z,1.88
2022-12-31T22:08:17.003Z,2.33
2022-12-31T22:11:21.602Z,1.42
2022-12-31T22:14:23.630Z,0.85
2022-12-31T22:17:25.707Z,1.80
2022-12-31T22:20:28.706Z,1.60
2022-12-31T22:23:32.179Z,2.78
2022-12-31T22:26:34.252Z,1.50
2022-12-31T22:29:36.373Z,1.40
2022-12-31T22:32:38.468Z,1.52
2022-12-31T22:35:40.783Z,1.08
2022-12-31T22:38:43.386Z,0.93
2022-12-31T22:41:46.474Z,2.07
2022-12-31T22:44:48.512Z,1.30
2022-12-31T22:47:50.887Z,1.48
2022-12-31T22:50:59.283Z,1.48
2022-12-31T22:54:01.591Z,0.70
2022-12-31T22:57:03.938Z,0.40
2022-12-31T23:00:11.028Z,1.35
2022-12-31T23:03:13.757Z,0.50
2022-12-31T23:06:16.349Z,1.52
2022-12-31T23:09:37.817Z,0.77
2022-12-31T23:12:39.768Z,0.88
2022-12-31T23:16:03.312Z,2.08
2022-12-31T23:19:24.703Z,2.67
2022-12-31T23:22:45.455Z,1.83
2022-12-31T23:25:51.930Z,1.83
2022-12-31T23:28:53.921Z,1.00
2022-12-31T23:31:56.033Z,0.70
2022-12-31T23:34:58.218Z,3.13
2022-12-31T23:38:00.141Z,0.80
2022-12-31T23:41:14.673Z,3.15
2022-12-31T23:44:16.864Z,1.52
2022-12-31T23:47:18.840Z,1.60
2022-12-31T23:50:21.018Z,3.83
2022-12-31T23:53:24.000Z,3.35
2022-12-31T23:56:26.155Z,0.90
2022-12-31T23:59:28.459Z,0.90
